createdAt,value
2022-11-05T00:00:19.053Z,3.70
2022-11-05T00:03:04.374Z,3.90
2022-11-05T00:05:50.076Z,3.72
2022-11-05T00:08:35.341Z,3.67
2022-11-05T00:11:01.940Z,2.90
2022-11-05T00:13:46.977Z,3.45
2022-11-05T00:16:31.844Z,3.35
2022-11-05T00:19:07.432Z,3.00
2022-11-05T00:21:53.300Z,3.65
2022-11-05T00:24:38.598Z,3.47
2022-11-05T00:27:05.607Z,3.40
2022-11-05T00:29:32.258Z,2.92
2022-11-05T00:31:58.825Z,3.25
2022-11-05T00:34:25.292Z,3.42
2022-11-05T00:36:51.815Z,3.10
2022-11-05T00:39:18.302Z,3.28
2022-11-05T00:42:04.762Z,3.45
2022-11-05T00:44:50.220Z,3.25
2022-11-05T00:47:35.451Z,3.95
2022-11-05T00:50:01.962Z,3.40
2022-11-05T00:52:46.869Z,3.28
2022-11-05T00:55:13.380Z,4.00
2022-11-05T00:57:39.867Z,3.30
2022-11-05T01:00:06.875Z,3.67
2022-11-05T01:02:33.561Z,3.60
2022-11-05T01:05:00.188Z,2.85
2022-11-05T01:07:26.693Z,3.38
2022-11-05T01:09:53.197Z,3.17
2022-11-05T01:12:19.653Z,3.80
2022-11-05T01:14:46.133Z,4.10
2022-11-05T01:17:12.634Z,4.32
2022-11-05T01:19:39.483Z,4.32
2022-11-05T01:22:06.010Z,3.60
2022-11-05T01:24:32.571Z,4.45
2022-11-05T01:26:59.135Z,3.87
2022-11-05T01:29:25.678Z,4.13
2022-11-05T01:31:52.219Z,4.38
2022-11-05T01:34:18.734Z,4.70
2022-11-05T01:36:45.240Z,4.28
2022-11-05T01:39:11.751Z,4.30
2022-11-05T01:41:38.322Z,4.05
2022-11-05T01:44:04.986Z,4.72
2022-11-05T01:46:36.847Z,5.90
2022-11-05T01:49:12.635Z,4.32
2022-11-05T01:51:40.112Z,4.33
2022-11-05T01:54:11.760Z,4.95
2022-11-05T01:56:45.107Z,4.85
2022-11-05T01:59:21.415Z,4.78
2022-11-05T02:01:48.141Z,4.65
2022-11-05T02:04:24.610Z,4.70
2022-11-05T02:06:51.180Z,4.50
2022-11-05T02:09:27.722Z,4.45
2022-11-05T02:11:54.259Z,4.97
2022-11-05T02:14:20.750Z,4.90
2022-11-05T02:16:57.990Z,4.97
2022-11-05T02:19:55.489Z,4.65
2022-11-05T02:22:44.039Z,4.82
2022-11-05T02:25:37.386Z,4.25
2022-11-05T02:28:22.000Z,5.60
2022-11-05T02:30:56.657Z,4.70
2022-11-05T02:33:47.880Z,5.90
2022-11-05T02:36:39.888Z,5.38
2022-11-05T02:39:24.950Z,4.65
2022-11-05T02:42:05.134Z,4.95
2022-11-05T02:44:34.609Z,5.33
2022-11-05T02:47:24.141Z,6.22
2022-11-05T02:50:05.930Z,5.85
2022-11-05T02:52:40.721Z,6.03
2022-11-05T02:55:22.986Z,6.90
2022-11-05T02:57:49.642Z,5.53
2022-11-05T03:00:37.894Z,5.30
2022-11-05T03:03:08.840Z,6.00
2022-11-05T03:05:55.539Z,6.45
2022-11-05T03:08:34.891Z,7.13
2022-11-05T03:11:12.771Z,6.93
2022-11-05T03:13:59.387Z,6.53
2022-11-05T03:16:40.368Z,8.02
2022-11-05T03:19:25.015Z,7.82
2022-11-05T03:21:57.899Z,7.47
2022-11-05T03:24:29.502Z,6.90
2022-11-05T03:27:00.758Z,7.28
2022-11-05T03:29:36.177Z,8.20
2022-11-05T03:32:05.082Z,7.63
2022-11-05T03:34:36.784Z,8.23
2022-11-05T03:37:05.285Z,7.33
2022-11-05T03:39:37.339Z,8.90
2022-11-05T03:42:07.352Z,8.35
2022-11-05T03:44:39.027Z,8.93
2022-11-05T03:47:19.360Z,9.15
2022-11-05T03:50:04.733Z,9.27
2022-11-05T03:52:38.091Z,8.50
2022-11-05T03:55:05.678Z,9.10
2022-11-05T03:57:37.211Z,10.40
2022-11-05T04:00:08.599Z,10.38
2022-11-05T04:02:35.248Z,8.97
2022-11-05T04:05:01.898Z,9.93
2022-11-05T04:07:47.096Z,10.82
2022-11-05T04:10:32.216Z,10.40
2022-11-05T04:13:17.493Z,9.77
2022-11-05T04:16:02.296Z,10.77
2022-11-05T04:18:28.791Z,10.85
2022-11-05T04:21:16.585Z,10.63
2022-11-05T04:24:01.629Z,11.00
2022-11-05T04:26:28.141Z,9.20
2022-11-05T04:29:13.043Z,10.10
2022-11-05T04:31:39.751Z,9.75
2022-11-05T04:34:06.304Z,10.35
2022-11-05T04:36:33.058Z,9.35
2022-11-05T04:38:59.616Z,10.52
2022-11-05T04:41:26.257Z,9.43
2022-11-05T04:43:52.768Z,8.77
2022-11-05T04:46:19.326Z,9.88
2022-11-05T04:48:45.920Z,8.77
2022-11-05T04:51:12.424Z,8.43
2022-11-05T04:53:38.960Z,8.73
2022-11-05T04:56:15.175Z,9.40
2022-11-05T04:58:42.877Z,8.95
2022-11-05T05:01:13.723Z,9.73
2022-11-05T05:03:40.371Z,8.75
2022-11-05T05:06:07.500Z,9.17
2022-11-05T05:08:34.167Z,10.90
2022-11-05T05:11:02.871Z,9.35
2022-11-05T05:13:29.372Z,9.25
2022-11-05T05:15:55.942Z,11.27
2022-11-05T05:18:22.420Z,9.43
2022-11-05T05:21:07.392Z,9.32
2022-11-05T05:23:33.887Z,9.30
2022-11-05T05:26:00.576Z,10.00
2022-11-05T05:28:28.112Z,10.07
2022-11-05T05:30:58.968Z,9.63
2022-11-05T05:33:25.900Z,9.93
2022-11-05T05:35:52.467Z,9.75
2022-11-05T05:38:19.195Z,9.73
2022-11-05T05:40:45.816Z,8.98
2022-11-05T05:43:12.576Z,9.63
2022-11-05T05:45:39.288Z,8.70
2022-11-05T05:48:06.006Z,9.95
2022-11-05T05:50:32.565Z,9.15
2022-11-05T05:52:59.038Z,9.90
2022-11-05T05:55:25.736Z,8.90
2022-11-05T05:57:52.226Z,9.05
2022-11-05T06:00:21.922Z,9.05
2022-11-05T06:02:48.540Z,8.70
2022-11-05T06:05:15.201Z,8.90
2022-11-05T06:07:41.695Z,8.73
2022-11-05T06:10:08.700Z,9.52
2022-11-05T06:12:35.217Z,8.65
2022-11-05T06:15:01.811Z,8.23
2022-11-05T06:17:28.363Z,8.00
2022-11-05T06:19:54.880Z,8.37
2022-11-05T06:22:21.422Z,7.70
2022-11-05T06:24:47.907Z,7.28
2022-11-05T06:27:14.382Z,7.20
2022-11-05T06:29:40.837Z,7.95
2022-11-05T06:32:07.328Z,8.07
2022-11-05T06:34:33.970Z,7.55
2022-11-05T06:37:00.452Z,8.60
2022-11-05T06:39:26.943Z,7.70
2022-11-05T06:44:40.000Z,7.33
2022-11-05T06:47:06.804Z,7.93
2022-11-05T06:49:33.316Z,7.65
2022-11-05T06:51:59.868Z,7.95
2022-11-05T06:54:26.420Z,7.25
2022-11-05T06:56:52.940Z,8.00
2022-11-05T06:59:19.473Z,7.00
2022-11-05T07:01:46.094Z,8.57
2022-11-05T07:04:12.780Z,8.00
2022-11-05T07:06:39.252Z,7.72
2022-11-05T07:09:05.743Z,8.37
2022-11-05T07:11:32.259Z,8.27
2022-11-05T07:13:58.960Z,8.65
2022-11-05T07:16:25.559Z,8.10
2022-11-05T07:18:52.860Z,8.65
2022-11-05T07:21:19.784Z,8.67
2022-11-05T07:23:46.290Z,9.13
2022-11-05T07:26:12.782Z,8.48
2022-11-05T07:28:39.283Z,9.50
2022-11-05T07:31:06.027Z,8.50
2022-11-05T07:33:36.548Z,9.13
2022-11-05T07:36:03.731Z,9.65
2022-11-05T07:38:30.292Z,9.48
2022-11-05T07:40:59.257Z,9.45
2022-11-05T07:43:25.845Z,9.02
2022-11-05T07:45:52.410Z,9.40
2022-11-05T07:48:18.989Z,9.90
2022-11-05T07:50:45.691Z,8.77
2022-11-05T07:53:14.438Z,10.18
2022-11-05T07:55:41.390Z,9.85
2022-11-05T07:58:07.976Z,9.70
2022-11-05T08:00:34.602Z,8.95
2022-11-05T08:03:08.544Z,9.77
2022-11-05T08:05:37.514Z,9.70
2022-11-05T08:08:05.050Z,10.55
2022-11-05T08:10:31.668Z,9.83
2022-11-05T08:12:59.648Z,9.13
2022-11-05T08:15:26.324Z,10.90
2022-11-05T08:18:16.959Z,10.27
2022-11-05T08:20:44.960Z,10.65
2022-11-05T08:23:11.908Z,9.83
2022-11-05T08:25:39.805Z,10.55
2022-11-05T08:28:10.197Z,11.10
2022-11-05T08:30:36.953Z,9.77
2022-11-05T08:33:12.783Z,9.98
2022-11-05T08:35:40.655Z,10.10
2022-11-05T08:38:10.045Z,9.30
2022-11-05T08:40:37.175Z,9.40
2022-11-05T08:43:06.700Z,9.45
2022-11-05T08:45:34.909Z,8.70
2022-11-05T08:48:15.416Z,8.27
2022-11-05T08:50:42.895Z,7.25
2022-11-05T08:53:10.607Z,7.50
2022-11-05T08:55:38.518Z,7.88
2022-11-05T08:58:07.598Z,7.47
2022-11-05T09:00:36.825Z,7.20
2022-11-05T09:03:05.368Z,7.53
2022-11-05T09:05:38.196Z,7.35
2022-11-05T09:08:10.448Z,8.73
2022-11-05T09:10:37.482Z,7.97
2022-11-05T09:13:05.035Z,8.10
2022-11-05T09:15:32.206Z,7.97
2022-11-05T09:17:59.294Z,8.60
2022-11-05T09:20:26.103Z,8.63
2022-11-05T09:22:53.014Z,8.90
2022-11-05T09:25:19.815Z,9.50
2022-11-05T09:27:46.425Z,9.40
2022-11-05T09:30:13.990Z,10.93
2022-11-05T09:32:40.921Z,10.35
2022-11-05T09:35:08.414Z,10.52
2022-11-05T09:37:36.241Z,9.97
2022-11-05T09:40:02.879Z,8.45
2022-11-05T09:42:35.414Z,9.15
2022-11-05T09:45:23.826Z,8.23
2022-11-05T09:47:57.504Z,7.03
2022-11-05T09:50:37.764Z,6.87
2022-11-05T09:53:05.160Z,6.28
2022-11-05T09:55:41.313Z,6.50
2022-11-05T09:58:23.182Z,5.50
2022-11-05T10:00:52.992Z,5.28
2022-11-05T10:03:24.891Z,5.60
2022-11-05T10:05:53.766Z,6.18
2022-11-05T10:08:22.748Z,5.45
2022-11-05T10:10:53.600Z,4.82
2022-11-05T10:13:37.976Z,5.45
2022-11-05T10:16:21.768Z,4.80
2022-11-05T10:18:54.046Z,4.53
2022-11-05T10:21:37.758Z,5.00
2022-11-05T10:24:30.267Z,4.57
2022-11-05T10:26:57.937Z,4.97
2022-11-05T10:29:33.122Z,5.57
2022-11-05T10:32:03.223Z,4.70
2022-11-05T10:34:34.266Z,5.35
2022-11-05T10:37:01.063Z,4.65
2022-11-05T10:39:29.046Z,6.00
2022-11-05T10:42:19.602Z,4.23
2022-11-05T10:45:22.995Z,5.18
2022-11-05T10:48:19.079Z,4.13
2022-11-05T10:50:45.864Z,4.00
2022-11-05T10:53:19.863Z,3.97
2022-11-05T10:55:49.354Z,3.70
2022-11-05T10:58:15.779Z,4.70
2022-11-05T11:00:52.258Z,3.85
2022-11-05T11:03:43.614Z,4.60
2022-11-05T11:06:28.304Z,3.85
2022-11-05T11:09:03.682Z,3.77
2022-11-05T11:11:37.679Z,4.45
2022-11-05T11:14:11.716Z,4.05
2022-11-05T11:16:50.432Z,4.32
2022-11-05T11:19:34.350Z,4.50
2022-11-05T11:22:03.594Z,3.70
2022-11-05T11:24:33.561Z,4.05
2022-11-05T11:27:05.748Z,4.30
2022-11-05T11:29:36.198Z,4.78
2022-11-05T11:32:02.882Z,4.95
2022-11-05T11:34:39.236Z,4.83
2022-11-05T11:37:12.938Z,3.95
2022-11-05T11:39:50.660Z,4.47
2022-11-05T11:42:49.103Z,4.53
2022-11-05T11:45:36.498Z,4.03
2022-11-05T11:48:06.496Z,4.30
2022-11-05T11:50:39.030Z,4.95
2022-11-05T11:53:20.600Z,3.85
2022-11-05T11:56:05.463Z,3.88
2022-11-05T11:58:42.081Z,3.88
2022-11-05T12:01:20.844Z,3.67
2022-11-05T12:04:15.316Z,3.28
2022-11-05T12:06:50.490Z,3.30
2022-11-05T12:09:50.467Z,2.90
2022-11-05T12:12:21.112Z,2.97
2022-11-05T12:14:56.652Z,2.80
2022-11-05T12:17:26.577Z,3.00
2022-11-05T12:20:13.965Z,2.55
2022-11-05T12:22:46.447Z,2.60
2022-11-05T12:25:21.866Z,2.90
2022-11-05T12:27:57.258Z,2.70
2022-11-05T12:30:24.093Z,2.60
2022-11-05T12:33:02.838Z,2.97
2022-11-05T12:35:56.463Z,2.75
2022-11-05T12:38:29.997Z,2.80
2022-11-05T12:41:24.992Z,2.47
2022-11-05T12:44:10.131Z,2.50
2022-11-05T12:46:54.567Z,2.20
2022-11-05T12:49:30.902Z,2.35
2022-11-05T12:52:23.195Z,2.50
2022-11-05T12:55:08.500Z,2.70
2022-11-05T12:57:40.254Z,2.47
2022-11-05T13:00:20.401Z,2.60
2022-11-05T13:03:06.904Z,3.00
2022-11-05T13:05:44.461Z,3.13
2022-11-05T13:08:25.432Z,4.80
2022-11-05T13:10:53.954Z,2.72
2022-11-05T13:13:30.953Z,2.20
2022-11-05T13:16:05.038Z,2.38
2022-11-05T13:18:47.145Z,2.10
2022-11-05T13:21:15.776Z,2.23
2022-11-05T13:24:11.043Z,2.28
2022-11-05T13:26:51.081Z,2.45
2022-11-05T13:29:27.357Z,3.13
2022-11-05T13:32:02.165Z,3.13
2022-11-05T13:34:33.464Z,2.93
2022-11-05T13:37:24.062Z,2.47
2022-11-05T13:40:03.557Z,3.22
2022-11-05T13:43:01.161Z,3.30
2022-11-05T13:45:42.963Z,3.42
2022-11-05T13:48:31.284Z,3.03
2022-11-05T13:51:12.686Z,2.60
2022-11-05T13:53:49.853Z,3.80
2022-11-05T13:56:44.169Z,2.75
2022-11-05T13:59:22.507Z,2.83
2022-11-05T14:01:58.508Z,2.90
2022-11-05T14:04:31.316Z,2.40
2022-11-05T14:07:16.769Z,2.70
2022-11-05T14:09:44.580Z,2.72
2022-11-05T14:12:26.825Z,2.40
2022-11-05T14:15:00.498Z,2.57
2022-11-05T14:17:32.199Z,2.65
2022-11-05T14:20:04.756Z,2.85
2022-11-05T14:22:31.205Z,3.17
2022-11-05T14:24:59.359Z,2.78
2022-11-05T14:27:28.850Z,2.83
2022-11-05T14:29:55.930Z,3.00
2022-11-05T14:32:24.943Z,3.20
2022-11-05T14:35:15.604Z,2.95
2022-11-05T14:37:53.247Z,3.17
2022-11-05T14:40:42.789Z,2.70
2022-11-05T14:43:24.797Z,2.65
2022-11-05T14:46:01.339Z,2.97
2022-11-05T14:48:48.646Z,3.60
2022-11-05T14:51:33.459Z,2.72
2022-11-05T14:53:59.967Z,2.13
2022-11-05T14:56:26.549Z,2.83
2022-11-05T14:59:24.818Z,2.30
2022-11-05T15:01:56.404Z,2.50
2022-11-05T15:04:36.382Z,2.80
2022-11-05T15:07:03.026Z,2.70
2022-11-05T15:09:38.411Z,2.28
2022-11-05T15:12:16.532Z,3.00
2022-11-05T15:14:59.291Z,2.80
2022-11-05T15:17:45.901Z,3.53
2022-11-05T15:20:41.475Z,2.73
2022-11-05T15:23:13.527Z,2.67
2022-11-05T15:25:55.520Z,2.47
2022-11-05T15:28:27.221Z,3.50
2022-11-05T15:31:03.241Z,2.95
2022-11-05T15:33:30.670Z,2.90
2022-11-05T15:36:28.316Z,2.83
2022-11-05T15:39:27.883Z,3.20
2022-11-05T15:41:43.021Z,3.45
2022-11-05T15:44:28.971Z,3.22
2022-11-05T15:47:14.114Z,3.50
2022-11-05T15:49:43.491Z,3.30
2022-11-05T15:52:15.332Z,3.10
2022-11-05T15:54:42.951Z,3.90
2022-11-05T15:57:28.908Z,3.78
2022-11-05T15:59:55.444Z,3.70
2022-11-05T16:02:32.616Z,4.57
2022-11-05T16:05:01.593Z,4.90
2022-11-05T16:07:28.794Z,3.58
2022-11-05T16:09:58.324Z,3.35
2022-11-05T16:12:34.093Z,3.47
2022-11-05T16:15:04.684Z,3.97
2022-11-05T16:17:40.278Z,3.95
2022-11-05T16:20:32.050Z,3.72
2022-11-05T16:23:01.932Z,4.05
2022-11-05T16:25:31.103Z,3.47
2022-11-05T16:27:59.517Z,3.75
2022-11-05T16:30:26.625Z,4.68
2022-11-05T16:32:53.676Z,3.60
2022-11-05T16:35:25.017Z,3.95
2022-11-05T16:37:52.771Z,4.03
2022-11-05T16:40:24.566Z,3.53
2022-11-05T16:42:53.787Z,4.25
2022-11-05T16:45:23.700Z,3.88
2022-11-05T16:47:50.770Z,4.55
2022-11-05T16:50:27.447Z,4.00
2022-11-05T16:52:54.049Z,4.10
2022-11-05T16:55:20.749Z,4.45
2022-11-05T16:57:54.491Z,3.53
2022-11-05T17:00:22.096Z,3.95
2022-11-05T17:02:48.959Z,3.73
2022-11-05T17:05:25.262Z,3.58
2022-11-05T17:07:53.033Z,3.42
2022-11-05T17:10:21.449Z,3.58
2022-11-05T17:12:48.540Z,3.70
2022-11-05T17:15:18.989Z,3.63
2022-11-05T17:17:45.712Z,3.75
2022-11-05T17:20:21.408Z,3.75
2022-11-05T17:22:47.881Z,3.50
2022-11-05T17:25:14.397Z,3.80
2022-11-05T17:27:40.938Z,3.63
2022-11-05T17:30:09.308Z,3.72
2022-11-05T17:32:35.921Z,3.47
2022-11-05T17:35:02.415Z,3.13
2022-11-05T17:37:28.971Z,4.05
2022-11-05T17:39:55.769Z,3.40
2022-11-05T17:42:22.355Z,3.53
2022-11-05T17:44:48.838Z,3.75
2022-11-05T17:47:15.342Z,3.83
2022-11-05T17:49:41.909Z,4.28
2022-11-05T17:52:08.509Z,3.00
2022-11-05T17:54:35.058Z,3.03
2022-11-05T17:57:03.618Z,4.30
2022-11-05T17:59:30.625Z,3.72
2022-11-05T18:01:57.742Z,4.38
2022-11-05T18:04:24.450Z,4.17
2022-11-05T18:06:51.054Z,3.78
2022-11-05T18:09:17.818Z,3.80
2022-11-05T18:11:44.356Z,3.72
2022-11-05T18:14:11.325Z,5.43
2022-11-05T18:16:38.302Z,3.43
2022-11-05T18:19:05.230Z,3.47
2022-11-05T18:21:31.920Z,3.20
2022-11-05T18:23:58.465Z,4.63
2022-11-05T18:26:28.048Z,3.78
2022-11-05T18:28:54.558Z,3.90
2022-11-05T18:31:21.941Z,4.20
2022-11-05T18:33:50.033Z,3.90
2022-11-05T18:36:27.598Z,5.15
2022-11-05T18:38:54.417Z,4.30
2022-11-05T18:41:21.632Z,4.57
2022-11-05T18:43:48.174Z,3.65
2022-11-05T18:46:36.103Z,3.45
2022-11-05T18:49:01.595Z,3.42
2022-11-05T18:51:28.388Z,4.05
2022-11-05T18:53:55.448Z,3.67
2022-11-05T18:56:22.332Z,3.83
2022-11-05T18:58:49.732Z,3.63
2022-11-05T19:01:22.911Z,3.40
2022-11-05T19:03:51.307Z,3.40
2022-11-05T19:06:18.572Z,3.13
2022-11-05T19:08:45.177Z,3.95
2022-11-05T19:11:15.195Z,4.68
2022-11-05T19:13:42.264Z,3.83
2022-11-05T19:16:10.838Z,4.75
2022-11-05T19:18:37.854Z,4.60
2022-11-05T19:21:09.151Z,4.13
2022-11-05T19:23:39.029Z,4.15
2022-11-05T19:26:15.922Z,3.65
2022-11-05T19:28:43.013Z,3.72
2022-11-05T19:31:15.237Z,3.07
2022-11-05T19:33:43.314Z,3.53
2022-11-05T19:36:11.586Z,3.70
2022-11-05T19:38:38.298Z,3.85
2022-11-05T19:41:10.704Z,3.30
2022-11-05T19:43:38.834Z,3.70
2022-11-05T19:46:10.407Z,3.97
2022-11-05T19:48:37.705Z,4.40
2022-11-05T19:51:09.344Z,3.70
2022-11-05T19:53:39.554Z,3.80
2022-11-05T19:56:08.140Z,4.90
2022-11-05T19:58:34.633Z,4.25
2022-11-05T20:01:01.503Z,4.05
2022-11-05T20:03:28.444Z,3.65
2022-11-05T20:05:54.978Z,4.03
2022-11-05T20:08:21.511Z,3.17
2022-11-05T20:10:53.695Z,3.88
2022-11-05T20:13:20.204Z,3.58
2022-11-05T20:15:46.805Z,3.65
2022-11-05T20:18:13.945Z,3.65
2022-11-05T20:20:41.763Z,3.40
2022-11-05T20:23:08.309Z,3.97
2022-11-05T20:25:34.945Z,3.88
2022-11-05T20:28:01.784Z,4.22
2022-11-05T20:30:28.418Z,3.67
2022-11-05T20:32:55.718Z,3.33
2022-11-05T20:35:23.184Z,3.00
2022-11-05T20:37:53.753Z,3.65
2022-11-05T20:40:20.800Z,3.35
2022-11-05T20:42:47.349Z,4.15
2022-11-05T20:45:13.904Z,3.43
2022-11-05T20:47:40.405Z,3.80
2022-11-05T20:50:07.863Z,3.30
2022-11-05T20:52:34.415Z,3.53
2022-11-05T20:55:02.238Z,3.70
2022-11-05T20:57:28.904Z,3.23
2022-11-05T20:59:55.490Z,3.38
2022-11-05T21:02:22.086Z,3.00
2022-11-05T21:04:48.740Z,3.40
2022-11-05T21:07:15.210Z,3.28
2022-11-05T21:09:41.721Z,2.90
2022-11-05T21:12:10.779Z,2.97
2022-11-05T21:14:42.336Z,3.13
2022-11-05T21:17:11.575Z,2.67
2022-11-05T21:19:38.514Z,3.00
2022-11-05T21:22:06.197Z,2.80
2022-11-05T21:24:33.736Z,2.67
2022-11-05T21:27:00.331Z,2.58
2022-11-05T21:29:27.109Z,3.40
2022-11-05T21:31:53.860Z,2.72
2022-11-05T21:34:20.440Z,2.80
2022-11-05T21:36:47.338Z,3.00
2022-11-05T21:39:14.082Z,2.67
2022-11-05T21:41:40.784Z,2.95
2022-11-05T21:44:07.331Z,2.92
2022-11-05T21:46:34.115Z,2.37
2022-11-05T21:49:00.685Z,2.83
2022-11-05T21:51:45.486Z,2.75
2022-11-05T21:54:30.531Z,2.88
2022-11-05T21:57:16.335Z,2.30
2022-11-05T21:59:48.720Z,2.37
2022-11-05T22:02:21.143Z,2.70
2022-11-05T22:04:50.883Z,4.38
2022-11-05T22:07:20.873Z,2.55
2022-11-05T22:09:47.420Z,2.70
2022-11-05T22:12:14.630Z,3.10
2022-11-05T22:14:41.610Z,3.60
2022-11-05T22:17:09.454Z,2.80
2022-11-05T22:19:36.487Z,3.38
2022-11-05T22:22:04.935Z,3.05
2022-11-05T22:24:32.039Z,2.90
2022-11-05T22:26:59.952Z,2.42
2022-11-05T22:29:27.274Z,2.78
2022-11-05T22:31:54.545Z,3.03
2022-11-05T22:34:21.359Z,4.03
2022-11-05T22:36:47.877Z,3.17
2022-11-05T22:39:14.929Z,3.25
2022-11-05T22:41:41.538Z,2.67
2022-11-05T22:44:10.327Z,2.30
2022-11-05T22:46:38.400Z,3.00
2022-11-05T22:49:06.388Z,3.03
2022-11-05T22:51:35.214Z,2.78
2022-11-05T22:54:02.666Z,3.10
2022-11-05T22:56:32.080Z,2.50
2022-11-05T22:58:59.207Z,3.10
2022-11-05T23:01:26.478Z,3.07
2022-11-05T23:03:55.165Z,2.80
2022-11-05T23:06:45.868Z,2.97
2022-11-05T23:09:43.525Z,2.83
2022-11-05T23:12:28.384Z,2.67
2022-11-05T23:14:57.313Z,3.20
2022-11-05T23:17:43.565Z,2.90
2022-11-05T23:20:35.314Z,3.05
2022-11-05T23:23:20.679Z,3.05
2022-11-05T23:25:47.460Z,2.90
2022-11-05T23:28:15.162Z,3.43
2022-11-05T23:31:02.640Z,3.20
2022-11-05T23:33:33.171Z,2.67
2022-11-05T23:36:18.655Z,3.42
2022-11-05T23:38:45.281Z,3.05
2022-11-05T23:41:30.256Z,3.23
2022-11-05T23:44:15.479Z,3.75
2022-11-05T23:47:00.441Z,3.35
2022-11-05T23:49:28.032Z,2.80
2022-11-05T23:51:54.544Z,3.20
2022-11-05T23:54:21.900Z,3.27
2022-11-05T23:56:48.411Z,2.95
2022-11-05T23:59:14.885Z,3.03
